Time;durP1;ratioP1;P1;durP2;ratioP2;P2;SDS_P1;SDS_P2;PMS_P1;PMS_P2;Temp;Humidity;BMP_temperature;BMP_pressure;BME280_temperature;BME280_humidity;BME280_pressure;Samples;Min_cycle;Max_cycle;Signal;HPM_P1;HPM_P2
2021/12/12 00:01:23;;;;;;;30.80;17.30;;;0.70;99.90;;;;;;4995900;28;20734;-95
2021/12/12 00:03:53;;;;;;;31.27;17.23;;;0.70;99.90;;;;;;4995957;28;20255;-95
2021/12/12 00:06:24;;;;;;;29.80;17.70;;;0.70;99.90;;;;;;4995841;28;20242;-96
2021/12/12 00:09:02;;;;;;;30.03;17.17;;;0.70;99.90;;;;;;4995697;28;20213;-94
2021/12/12 00:11:32;;;;;;;31.73;18.40;;;0.70;99.90;;;;;;4995915;28;20174;-94
2021/12/12 00:14:03;;;;;;;28.97;17.40;;;0.80;99.90;;;;;;4997591;28;20176;-95
2021/12/12 00:16:29;;;;;;;34.00;18.43;;;0.80;99.90;;;;;;4996542;28;20226;-94
2021/12/12 00:18:56;;;;;;;31.40;17.63;;;0.80;99.90;;;;;;4996976;28;20612;-95
2021/12/12 16:25:37;;;;;;;6.63;5.93;;;5.00;99.90;;;;;;4978893;28;20203;-93
2021/12/12 16:28:08;;;;;;;6.53;5.60;;;5.10;99.90;;;;;;4937110;29;20218;-96
2021/12/12 16:30:47;;;;;;;10.97;6.20;;;5.10;99.90;;;;;;4925611;29;20240;-96
2021/12/12 16:33:19;;;;;;;8.83;5.97;;;5.10;99.90;;;;;;4923965;29;20171;-96
2021/12/12 16:35:46;;;;;;;6.93;5.70;;;5.10;99.90;;;;;;4926745;29;20213;-96
2021/12/12 16:38:20;;;;;;;8.37;6.50;;;5.10;99.90;;;;;;4925523;29;20237;-97
2021/12/12 16:40:52;;;;;;;7.83;5.87;;;5.10;99.90;;;;;;4925636;29;20175;-96
2021/12/12 16:43:22;;;;;;;9.37;6.10;;;5.10;99.90;;;;;;4923949;29;20171;-96
2021/12/12 16:57:37;;;;;;;8.33;6.53;;;5.10;99.90;;;;;;5001647;23;20347;-96
2021/12/12 17:00:19;;;;;;;7.97;7.17;;;5.10;99.90;;;;;;4977282;28;20244;-96
2021/12/12 17:03:02;;;;;;;8.27;7.40;;;5.20;99.90;;;;;;4961403;29;20334;-96
2021/12/12 17:05:33;;;;;;;9.73;7.20;;;5.20;99.90;;;;;;4962977;29;20173;-95
2021/12/12 17:08:15;;;;;;;8.70;6.93;;;5.20;99.90;;;;;;4965884;28;20575;-96
2021/12/12 17:10:49;;;;;;;10.13;7.70;;;5.20;99.90;;;;;;4964648;28;20589;-96
2021/12/12 17:13:16;;;;;;;8.53;7.50;;;5.20;99.90;;;;;;4982034;28;20188;-96
2021/12/12 17:15:46;;;;;;;9.80;7.80;;;5.30;99.90;;;;;;4975977;28;20184;-94
2021/12/12 17:18:17;;;;;;;11.70;7.90;;;5.20;99.90;;;;;;4977118;28;20207;-96
2021/12/12 17:20:48;;;;;;;10.07;7.73;;;5.20;99.90;;;;;;4977398;28;20184;-96
2021/12/12 17:23:26;;;;;;;8.33;6.90;;;5.30;99.90;;;;;;4978032;28;20184;-96
2021/12/12 17:25:55;;;;;;;10.67;7.63;;;5.30;99.90;;;;;;4979886;28;20242;-96
2021/12/12 17:28:24;;;;;;;9.63;7.87;;;5.30;99.90;;;;;;4977669;28;20204;-96
2021/12/12 17:31:08;;;;;;;11.23;8.40;;;5.30;99.90;;;;;;4977416;28;20184;-96
2021/12/12 17:33:47;;;;;;;11.30;7.97;;;5.30;99.90;;;;;;4977286;28;20181;-96
2021/12/12 17:36:22;;;;;;;10.17;8.33;;;5.30;99.90;;;;;;4979657;28;20343;-96
2021/12/12 17:38:55;;;;;;;11.30;8.43;;;5.30;99.90;;;;;;4982396;28;20188;-96
2021/12/12 17:41:33;;;;;;;10.67;8.40;;;5.30;99.90;;;;;;4981573;28;20200;-96
2021/12/12 17:44:14;;;;;;;9.80;7.90;;;5.30;99.90;;;;;;4981947;28;20181;-96
2021/12/12 17:47:08;;;;;;;9.97;7.87;;;5.30;99.90;;;;;;4986269;28;20521;-96
2021/12/12 17:50:15;;;;;;;11.97;8.53;;;5.30;99.90;;;;;;4988423;28;20212;-96
2021/12/12 17:52:55;;;;;;;10.13;8.27;;;5.40;99.90;;;;;;4890446;29;20270;-96
2021/12/12 17:55:29;;;;;;;11.20;8.73;;;5.40;99.90;;;;;;4972839;28;20192;-96
2021/12/12 17:58:05;;;;;;;13.77;8.77;;;5.40;99.90;;;;;;4982166;28;20224;-95
2021/12/12 18:00:43;;;;;;;10.20;8.70;;;5.40;99.90;;;;;;4982074;28;20266;-96
2021/12/12 18:03:14;;;;;;;11.90;9.10;;;5.40;99.90;;;;;;4981109;28;20196;-96
2021/12/12 18:05:44;;;;;;;10.57;8.60;;;5.40;99.90;;;;;;4980885;28;20192;-95
2021/12/12 18:08:23;;;;;;;11.53;8.50;;;5.40;99.90;;;;;;4982599;28;20219;-96
2021/12/12 18:10:55;;;;;;;12.07;8.93;;;5.40;99.90;;;;;;4984598;28;20279;-96
2021/12/12 18:13:24;;;;;;;11.33;8.30;;;5.50;99.90;;;;;;4980839;28;20181;-96
2021/12/12 18:16:08;;;;;;;12.03;9.10;;;5.40;99.90;;;;;;4982644;28;20208;-96
2021/12/12 18:18:37;;;;;;;9.70;8.60;;;5.40;99.90;;;;;;4984451;28;20180;-96
2021/12/12 18:21:03;;;;;;;12.00;9.27;;;5.40;99.90;;;;;;4983688;28;20177;-96
2021/12/12 18:23:31;;;;;;;11.50;8.67;;;5.50;99.90;;;;;;4985162;28;20184;-96
2021/12/12 18:26:03;;;;;;;10.23;8.83;;;5.50;99.90;;;;;;4986140;28;20188;-96
2021/12/12 18:28:39;;;;;;;9.90;7.70;;;5.50;99.90;;;;;;4981509;28;20713;-96
2021/12/12 18:31:13;;;;;;;11.27;8.60;;;5.50;99.90;;;;;;4982373;28;20604;-96
2021/12/12 18:33:50;;;;;;;12.37;9.20;;;5.50;99.90;;;;;;4983262;28;20238;-95
2021/12/12 18:36:18;;;;;;;11.33;9.10;;;5.50;99.90;;;;;;4982526;28;20176;-96
2021/12/12 18:38:51;;;;;;;15.60;9.47;;;5.50;99.90;;;;;;4984836;28;20177;-95
2021/12/12 18:41:25;;;;;;;10.80;9.07;;;5.50;99.90;;;;;;4985114;28;20185;-96
2021/12/12 18:43:57;;;;;;;13.23;9.00;;;5.50;99.90;;;;;;4983719;28;20711;-96
2021/12/12 18:46:31;;;;;;;11.43;9.20;;;5.50;99.90;;;;;;4983169;28;20224;-96
2021/12/12 18:49:10;;;;;;;12.77;9.37;;;5.50;99.90;;;;;;4970279;28;20217;-95
2021/12/12 18:51:46;;;;;;;12.80;9.83;;;5.50;99.90;;;;;;4983069;28;20180;-96
2021/12/12 18:54:15;;;;;;;14.50;9.77;;;5.50;99.90;;;;;;4979095;28;20208;-96
2021/12/12 18:56:47;;;;;;;11.90;9.07;;;5.50;99.90;;;;;;4978383;28;20216;-96
2021/12/12 18:59:21;;;;;;;10.67;9.23;;;5.60;99.90;;;;;;4977895;28;20240;-95
2021/12/12 19:01:51;;;;;;;13.77;9.63;;;5.60;99.90;;;;;;4978325;28;20275;-95
2021/12/12 19:04:24;;;;;;;11.67;9.30;;;5.60;99.90;;;;;;4977842;28;20189;-96
2021/12/12 19:06:52;;;;;;;11.97;9.60;;;5.60;99.90;;;;;;4977664;28;20305;-95
2021/12/12 19:09:26;;;;;;;11.73;9.43;;;5.60;99.90;;;;;;4977658;28;20658;-96
2021/12/12 19:11:54;;;;;;;14.53;10.20;;;5.60;99.90;;;;;;4977859;28;20204;-96
2021/12/12 19:14:24;;;;;;;12.97;9.77;;;5.60;99.90;;;;;;4977833;28;20189;-96
2021/12/12 19:16:57;;;;;;;11.83;9.57;;;5.60;99.90;;;;;;4977812;28;20517;-96
2021/12/12 19:19:33;;;;;;;12.97;10.27;;;5.60;99.90;;;;;;4977707;28;20203;-96
2021/12/12 19:22:05;;;;;;;13.10;9.87;;;5.60;99.90;;;;;;4978110;28;20223;-95
2021/12/12 19:24:32;;;;;;;13.63;10.17;;;5.60;99.90;;;;;;4977485;28;20181;-96
2021/12/12 19:27:17;;;;;;;13.60;10.67;;;5.60;99.90;;;;;;4977566;28;20671;-96
2021/12/12 19:29:48;;;;;;;13.77;10.33;;;5.70;99.90;;;;;;4977011;28;20204;-96
2021/12/12 19:32:24;;;;;;;13.93;10.83;;;5.70;99.90;;;;;;4978144;28;20173;-95
2021/12/12 19:34:57;;;;;;;15.47;10.10;;;5.70;99.90;;;;;;4977471;28;20211;-96
2021/12/12 19:37:25;;;;;;;14.90;11.00;;;5.70;99.90;;;;;;4977163;28;20215;-95
2021/12/12 19:40:08;;;;;;;13.37;10.43;;;5.70;99.90;;;;;;4977108;28;20616;-95
2021/12/12 19:42:40;;;;;;;14.57;10.50;;;5.70;99.90;;;;;;4977627;28;20212;-93
2021/12/12 19:45:28;;;;;;;15.33;10.63;;;5.70;99.90;;;;;;4977453;28;20227;-95
2021/12/12 19:47:57;;;;;;;14.83;10.73;;;5.70;99.90;;;;;;4976941;28;20176;-94
2021/12/12 19:50:29;;;;;;;13.80;10.47;;;5.80;99.90;;;;;;4976875;28;20208;-95
2021/12/12 19:52:56;;;;;;;17.00;11.10;;;5.70;99.90;;;;;;4976949;28;20181;-95
2021/12/12 19:55:28;;;;;;;15.87;11.70;;;5.80;99.90;;;;;;4976596;28;20188;-94
2021/12/12 19:58:05;;;;;;;15.00;11.73;;;5.80;99.90;;;;;;4976390;28;20231;-94
2021/12/12 20:00:40;;;;;;;17.03;11.73;;;5.80;99.90;;;;;;4976528;28;20200;-94
2021/12/12 20:03:14;;;;;;;17.00;12.23;;;5.70;99.90;;;;;;4976556;28;20662;-94
2021/12/12 20:05:51;;;;;;;19.13;13.27;;;5.70;99.90;;;;;;4975847;28;20184;-94
2021/12/12 20:08:25;;;;;;;19.10;13.20;;;5.70;99.90;;;;;;4976122;28;20208;-95
2021/12/12 20:10:58;;;;;;;21.20;14.80;;;5.70;99.90;;;;;;4970175;28;20181;-95
2021/12/12 20:13:31;;;;;;;20.43;15.03;;;5.60;99.90;;;;;;4957543;29;20257;-96
2021/12/12 20:15:57;;;;;;;16.77;13.27;;;5.60;99.90;;;;;;4957259;29;20182;-95
2021/12/12 20:18:25;;;;;;;21.97;14.03;;;5.60;99.90;;;;;;4957262;29;20176;-95
2021/12/12 20:20:54;;;;;;;17.30;13.67;;;5.60;99.90;;;;;;4957171;29;20231;-95
2021/12/12 20:23:32;;;;;;;17.77;13.00;;;5.60;99.90;;;;;;4956987;29;20189;-96
2021/12/12 20:26:10;;;;;;;17.33;13.23;;;5.60;99.90;;;;;;4956965;29;20168;-96
2021/12/12 20:28:47;;;;;;;19.17;14.07;;;5.60;99.90;;;;;;4957188;29;20212;-95
2021/12/12 20:31:17;;;;;;;18.60;13.30;;;5.60;99.90;;;;;;4957438;29;20291;-96
2021/12/12 20:33:43;;;;;;;18.37;13.70;;;5.60;99.90;;;;;;4956854;29;20181;-96
2021/12/12 20:36:12;;;;;;;19.23;13.77;;;5.70;99.90;;;;;;4972841;28;20192;-96
2021/12/12 20:38:41;;;;;;;17.47;13.23;;;5.60;99.90;;;;;;4972322;28;20177;-96
2021/12/12 20:41:15;;;;;;;18.07;13.63;;;5.70;99.90;;;;;;4972505;28;20189;-96
2021/12/12 20:43:44;;;;;;;19.73;12.73;;;5.70;99.90;;;;;;4956662;28;20189;-96
2021/12/12 20:46:16;;;;;;;17.70;13.13;;;5.70;99.90;;;;;;4956655;29;20175;-95
2021/12/12 20:48:55;;;;;;;16.63;13.30;;;5.70;99.90;;;;;;4957070;29;20213;-96
2021/12/12 20:51:23;;;;;;;17.67;12.90;;;5.80;99.90;;;;;;4954946;28;20254;-95
2021/12/12 20:54:10;;;;;;;20.10;13.33;;;5.80;99.90;;;;;;4972289;28;20730;-94
2021/12/12 20:56:47;;;;;;;16.17;12.73;;;5.70;99.90;;;;;;4972481;28;20211;-94
2021/12/12 20:59:16;;;;;;;17.83;13.00;;;5.80;99.90;;;;;;4974205;28;20236;-96
2021/12/12 21:01:49;;;;;;;18.80;13.30;;;5.70;99.90;;;;;;4970506;28;20185;-95
2021/12/12 21:04:23;;;;;;;16.97;12.20;;;5.80;99.90;;;;;;4970185;28;20565;-95
2021/12/12 21:07:08;;;;;;;15.97;12.63;;;5.70;99.90;;;;;;4973108;28;20243;-93
2021/12/12 21:09:48;;;;;;;16.93;12.87;;;5.80;99.90;;;;;;4972227;28;20348;-94
2021/12/12 21:12:31;;;;;;;17.83;13.33;;;5.80;99.90;;;;;;4970714;28;20196;-94
2021/12/12 21:15:17;;;;;;;18.63;13.33;;;5.80;99.90;;;;;;4971195;28;20287;-96
2021/12/12 21:17:46;;;;;;;21.50;14.30;;;5.70;99.90;;;;;;4971261;28;20187;-94
2021/12/12 21:20:22;;;;;;;21.20;14.30;;;5.70;99.90;;;;;;4973408;28;20192;-95
2021/12/12 21:22:53;;;;;;;19.27;13.60;;;5.80;99.90;;;;;;4973499;28;20192;-94
2021/12/12 21:25:36;;;;;;;19.47;13.43;;;5.70;99.90;;;;;;4972434;28;20207;-95
2021/12/12 21:28:13;;;;;;;18.17;12.80;;;5.80;99.90;;;;;;4974115;28;20661;-96
2021/12/12 21:31:22;;;;;;;18.10;13.23;;;5.80;99.90;;;;;;4971148;28;20196;-94
2021/12/12 21:33:58;;;;;;;16.90;12.73;;;5.90;99.90;;;;;;4933647;28;20196;-95
2021/12/12 21:36:39;;;;;;;16.90;12.63;;;5.80;99.90;;;;;;4973303;28;20192;-95
2021/12/12 21:39:22;;;;;;;17.57;12.77;;;5.80;99.90;;;;;;4986336;28;20189;-94
2021/12/12 21:41:57;;;;;;;16.53;12.73;;;5.80;99.90;;;;;;4974262;28;20319;-96
2021/12/12 21:44:37;;;;;;;18.37;14.03;;;5.80;99.90;;;;;;4973699;28;20254;-96
2021/12/12 21:47:12;;;;;;;19.20;13.03;;;5.80;99.90;;;;;;4972582;28;20196;-95
2021/12/12 21:49:54;;;;;;;19.57;14.13;;;5.80;99.90;;;;;;4970234;28;20227;-96
2021/12/12 21:52:38;;;;;;;18.17;13.50;;;5.90;99.90;;;;;;4971870;28;20218;-95
2021/12/12 21:55:22;;;;;;;17.97;13.17;;;5.80;99.90;;;;;;4973310;28;20188;-96
2021/12/12 21:57:48;;;;;;;18.60;13.17;;;5.80;99.90;;;;;;4972743;28;20185;-96
2021/12/12 22:00:23;;;;;;;18.70;13.70;;;5.80;99.90;;;;;;4973339;28;20250;-95
2021/12/12 22:02:53;;;;;;;21.53;15.10;;;5.80;99.90;;;;;;4973327;28;20223;-95
2021/12/12 22:05:32;;;;;;;20.73;14.17;;;5.80;99.90;;;;;;4973064;28;20192;-95
2021/12/12 22:08:25;;;;;;;19.00;13.90;;;5.90;99.90;;;;;;4973141;28;20634;-96
2021/12/12 22:10:56;;;;;;;19.90;14.30;;;5.90;99.90;;;;;;4973086;28;20203;-94
2021/12/12 22:13:26;;;;;;;20.20;14.00;;;5.90;99.90;;;;;;4973165;28;20189;-94
2021/12/12 22:15:56;;;;;;;22.97;15.03;;;5.90;99.90;;;;;;4973310;28;20199;-94
2021/12/12 22:18:30;;;;;;;22.07;15.07;;;5.90;99.90;;;;;;4973041;28;20223;-94
2021/12/12 22:21:04;;;;;;;21.33;14.43;;;5.90;99.90;;;;;;4973769;28;20279;-95
2021/12/12 22:23:32;;;;;;;23.53;15.13;;;5.90;99.90;;;;;;4973358;28;20524;-94
2021/12/12 22:25:59;;;;;;;23.67;14.80;;;5.90;99.90;;;;;;4973574;28;20612;-95
2021/12/12 22:28:42;;;;;;;20.10;13.63;;;6.00;99.90;;;;;;4974080;28;20247;-94
2021/12/12 22:31:11;;;;;;;22.60;14.23;;;5.90;99.90;;;;;;4977281;28;20216;-95
2021/12/12 22:33:51;;;;;;;20.87;14.37;;;6.00;99.90;;;;;;4975959;28;20184;-95
2021/12/12 22:36:24;;;;;;;20.67;14.00;;;6.00;99.90;;;;;;4977025;28;20188;-94
2021/12/12 22:38:57;;;;;;;18.73;13.20;;;6.10;99.90;;;;;;4976173;28;20188;-94
2021/12/12 22:41:34;;;;;;;20.00;13.17;;;6.10;99.90;;;;;;4977103;28;20181;-95
2021/12/12 22:44:08;;;;;;;17.67;12.83;;;6.20;99.90;;;;;;4977980;28;20204;-95
2021/12/12 22:46:35;;;;;;;19.63;13.03;;;6.20;99.90;;;;;;4977813;28;20168;-95
2021/12/12 22:49:11;;;;;;;18.83;13.47;;;6.20;99.90;;;;;;4977408;28;20212;-96
2021/12/12 22:51:42;;;;;;;19.67;13.47;;;6.20;99.90;;;;;;4978214;28;20177;-95
2021/12/12 22:54:30;;;;;;;19.80;12.93;;;6.20;99.90;;;;;;4977429;28;20236;-96
2021/12/12 22:57:03;;;;;;;21.07;13.10;;;6.20;99.90;;;;;;4977777;28;20276;-95
2021/12/12 22:59:32;;;;;;;18.83;13.33;;;6.30;99.90;;;;;;4977370;28;20236;-95
2021/12/12 23:02:10;;;;;;;19.70;13.37;;;6.30;99.90;;;;;;4977845;28;20180;-94
2021/12/12 23:04:56;;;;;;;19.60;13.97;;;6.30;99.90;;;;;;4977093;28;20243;-95
2021/12/12 23:07:31;;;;;;;22.07;14.17;;;6.30;99.90;;;;;;4977265;28;20204;-95
2021/12/12 23:10:14;;;;;;;20.83;13.67;;;6.30;99.90;;;;;;4977380;28;20208;-95
2021/12/12 23:12:56;;;;;;;24.20;15.33;;;6.30;99.90;;;;;;4977522;28;20264;-95
2021/12/12 23:15:27;;;;;;;23.63;14.90;;;6.40;99.90;;;;;;4977344;28;20172;-95
2021/12/12 23:17:57;;;;;;;25.03;15.53;;;6.40;99.90;;;;;;4976923;28;20176;-95
2021/12/12 23:20:31;;;;;;;22.03;15.20;;;6.40;99.90;;;;;;4977243;28;20191;-94
2021/12/12 23:23:04;;;;;;;25.93;15.83;;;6.40;99.90;;;;;;4977393;28;20165;-94
2021/12/12 23:25:32;;;;;;;23.87;15.07;;;6.40;99.90;;;;;;4977193;28;20173;-95
2021/12/12 23:30:45;;;;;;;24.93;15.43;;;6.40;99.90;;;;;;4978451;28;20651;-95
2021/12/12 23:33:16;;;;;;;24.83;15.63;;;6.40;99.90;;;;;;4977552;28;20173;-96
2021/12/12 23:35:47;;;;;;;24.53;14.47;;;6.50;99.90;;;;;;4977615;28;20183;-96
2021/12/12 23:38:17;;;;;;;26.73;15.20;;;6.50;99.90;;;;;;4978464;28;20172;-96
2021/12/12 23:40:56;;;;;;;22.57;14.33;;;6.50;99.90;;;;;;4976615;28;20185;-96
2021/12/12 23:43:43;;;;;;;22.87;13.77;;;6.50;99.90;;;;;;4977414;28;20215;-96
2021/12/12 23:46:31;;;;;;;25.97;15.10;;;6.60;99.90;;;;;;4977281;28;20207;-95
2021/12/12 23:49:08;;;;;;;28.23;13.93;;;6.60;99.90;;;;;;4977007;28;20267;-96
2021/12/12 23:51:39;;;;;;;23.73;14.83;;;6.50;99.90;;;;;;4977055;28;20291;-95
2021/12/12 23:54:08;;;;;;;23.97;14.30;;;6.60;99.90;;;;;;4976749;28;20184;-95
2021/12/12 23:56:41;;;;;;;22.13;14.10;;;6.60;99.90;;;;;;4976933;28;20189;-95
2021/12/12 23:59:23;;;;;;;24.23;14.83;;;6.60;99.90;;;;;;4976652;28;20228;-96
